createdAt,value
2016-05-31T00:00:56.361Z,1016.93
2016-05-31T00:01:56.333Z,1016.91
2016-05-31T00:02:56.320Z,1016.89
2016-05-31T00:03:56.307Z,1016.88
2016-05-31T00:04:56.294Z,1016.88
2016-05-31T00:05:56.281Z,1016.88
2016-05-31T00:06:56.252Z,1016.84
2016-05-31T00:07:56.240Z,1016.88
2016-05-31T00:08:56.227Z,1016.84
2016-05-31T00:09:56.199Z,1016.86
2016-05-31T00:10:56.185Z,1016.84
2016-05-31T00:11:56.172Z,1016.85
2016-05-31T00:12:56.159Z,1016.86
2016-05-31T00:13:56.131Z,1016.84
2016-05-31T00:14:56.118Z,1016.81
2016-05-31T00:15:56.105Z,1016.84
2016-05-31T00:16:56.076Z,1016.84
2016-05-31T00:17:56.062Z,1016.87
2016-05-31T00:18:56.051Z,1016.83
2016-05-31T00:19:56.038Z,1016.81
2016-05-31T00:20:56.025Z,1016.81
2016-05-31T00:21:55.995Z,1016.82
2016-05-31T00:22:55.983Z,1016.81
2016-05-31T00:23:55.985Z,1016.77
2016-05-31T00:24:55.942Z,1016.81
2016-05-31T00:25:55.928Z,1016.82
2016-05-31T00:26:55.916Z,1016.8
2016-05-31T00:27:55.902Z,1016.73
2016-05-31T00:28:55.875Z,1016.7
2016-05-31T00:29:55.861Z,1016.76
2016-05-31T00:30:55.848Z,1016.72
2016-05-31T00:31:55.835Z,1016.76
2016-05-31T00:32:55.807Z,1016.74
2016-05-31T00:33:55.810Z,1016.76
2016-05-31T00:34:55.781Z,1016.75
2016-05-31T00:35:55.752Z,1016.74
2016-05-31T00:36:55.739Z,1016.74
2016-05-31T00:37:56.460Z,1016.7
2016-05-31T00:38:55.714Z,1016.68
2016-05-31T00:39:55.701Z,1016.68
2016-05-31T00:40:55.687Z,1016.69
2016-05-31T00:41:55.659Z,1016.65
2016-05-31T00:42:55.646Z,1016.66
2016-05-31T00:43:55.618Z,1016.68
2016-05-31T00:44:55.604Z,1016.63
2016-05-31T00:45:55.592Z,1016.63
2016-05-31T00:46:55.579Z,1016.65
2016-05-31T00:47:55.551Z,1016.63
2016-05-31T00:48:55.538Z,1016.61
2016-05-31T00:49:55.524Z,1016.62
2016-05-31T00:50:55.495Z,1016.65
2016-05-31T00:51:55.484Z,1016.64
2016-05-31T00:52:55.470Z,1016.62
2016-05-31T00:53:55.457Z,1016.66
2016-05-31T00:54:55.444Z,1016.63
2016-05-31T00:55:55.415Z,1016.65
2016-05-31T00:56:55.403Z,1016.63
2016-05-31T00:57:55.389Z,1016.66
2016-05-31T00:58:55.377Z,1016.64
2016-05-31T00:59:55.348Z,1016.62
2016-05-31T01:00:55.335Z,1016.64
2016-05-31T01:01:55.322Z,1016.59
2016-05-31T01:02:55.294Z,1016.58
2016-05-31T01:03:55.281Z,1016.57
2016-05-31T01:04:55.268Z,1016.57
2016-05-31T01:05:55.255Z,1016.56
2016-05-31T01:06:55.227Z,1016.53
2016-05-31T01:07:55.791Z,1016.58
2016-05-31T01:08:55.200Z,1016.58
2016-05-31T01:09:55.188Z,1016.58
2016-05-31T01:10:55.159Z,1016.58
2016-05-31T01:11:55.146Z,1016.58
2016-05-31T01:12:55.118Z,1016.53
2016-05-31T01:13:55.104Z,1016.49
2016-05-31T01:14:55.091Z,1016.49
2016-05-31T01:15:55.079Z,1016.46
2016-05-31T01:16:55.065Z,1016.5
2016-05-31T01:17:55.037Z,1016.47
2016-05-31T01:18:55.024Z,1016.43
2016-05-31T01:19:55.011Z,1016.45
2016-05-31T01:20:54.998Z,1016.42
2016-05-31T01:21:54.970Z,1016.41
2016-05-31T01:22:54.956Z,1016.38
2016-05-31T01:23:54.945Z,1016.41
2016-05-31T01:24:54.931Z,1016.44
2016-05-31T01:25:54.903Z,1016.48
2016-05-31T01:26:54.889Z,1016.42
2016-05-31T01:27:54.876Z,1016.44
2016-05-31T01:28:54.848Z,1016.42
2016-05-31T01:29:54.851Z,1016.46
2016-05-31T01:30:54.822Z,1016.45
2016-05-31T01:31:54.809Z,1016.46
2016-05-31T01:32:54.780Z,1016.41
2016-05-31T01:33:54.768Z,1016.46
2016-05-31T01:34:54.739Z,1016.44
2016-05-31T01:35:54.741Z,1016.45
2016-05-31T01:36:54.714Z,1016.47
2016-05-31T01:37:54.700Z,1016.46
2016-05-31T01:38:54.688Z,1016.54
2016-05-31T01:39:54.658Z,1016.47
2016-05-31T01:40:54.646Z,1016.46
2016-05-31T01:41:54.632Z,1016.43
2016-05-31T01:42:54.604Z,1016.41
2016-05-31T01:43:54.591Z,1016.44
2016-05-31T01:44:54.579Z,1016.35
2016-05-31T01:45:54.565Z,1016.35
2016-05-31T01:46:54.552Z,1016.37
2016-05-31T01:47:54.524Z,1016.34
2016-05-31T01:48:54.512Z,1016.33
2016-05-31T01:49:54.498Z,1016.33
2016-05-31T01:50:54.485Z,1016.39
2016-05-31T01:51:54.457Z,1016.4
2016-05-31T01:52:54.443Z,1016.36
2016-05-31T01:53:54.415Z,1016.31
2016-05-31T01:54:54.403Z,1016.37
2016-05-31T01:55:54.390Z,1016.29
2016-05-31T01:56:54.376Z,1016.31
2016-05-31T01:57:54.364Z,1016.32
2016-05-31T01:58:54.350Z,1016.34
2016-05-31T01:59:54.322Z,1016.3
2016-05-31T02:00:54.309Z,1016.29
2016-05-31T02:01:54.281Z,1016.28
2016-05-31T02:02:54.267Z,1016.3
2016-05-31T02:03:54.255Z,1016.26
2016-05-31T02:04:54.241Z,1016.27
2016-05-31T02:05:54.214Z,1016.25
2016-05-31T02:06:54.200Z,1016.24
2016-05-31T02:07:54.187Z,1016.22
2016-05-31T02:08:54.158Z,1016.26
2016-05-31T02:09:54.146Z,1016.23
2016-05-31T02:10:54.133Z,1016.24
2016-05-31T02:11:54.120Z,1016.19
2016-05-31T02:12:54.107Z,1016.23
2016-05-31T02:13:54.094Z,1016.23
2016-05-31T02:14:54.066Z,1016.22
2016-05-31T02:15:54.037Z,1016.18
2016-05-31T02:16:54.024Z,1016.19
2016-05-31T02:17:54.011Z,1016.21
2016-05-31T02:18:53.999Z,1016.19
2016-05-31T02:19:53.985Z,1016.19
2016-05-31T02:20:53.957Z,1016.11
2016-05-31T02:21:53.943Z,1016.12
2016-05-31T02:22:54.524Z,1016.13
2016-05-31T02:23:53.918Z,1016.18
2016-05-31T02:24:53.905Z,1016.12
2016-05-31T02:25:53.877Z,1016.15
2016-05-31T02:26:53.848Z,1016.18
2016-05-31T02:27:53.835Z,1016.2
2016-05-31T02:28:53.823Z,1016.2
2016-05-31T02:29:53.809Z,1016.19
2016-05-31T02:30:53.796Z,1016.21
2016-05-31T02:31:53.767Z,1016.19
2016-05-31T02:32:53.755Z,1016.21
2016-05-31T02:33:53.742Z,1016.16
2016-05-31T02:34:53.729Z,1016.17
2016-05-31T02:35:53.700Z,1016.2
2016-05-31T02:36:53.687Z,1016.15
2016-05-31T02:37:53.674Z,1016.13
2016-05-31T02:38:53.646Z,1016.14
2016-05-31T02:39:53.633Z,1016.15
2016-05-31T02:40:53.619Z,1016.17
2016-05-31T02:41:53.591Z,1016.13
2016-05-31T02:42:53.578Z,1016.08
2016-05-31T02:43:53.566Z,1016.05
2016-05-31T02:44:53.552Z,1016.07
2016-05-31T02:45:53.521Z,1016.05
2016-05-31T02:46:53.508Z,1016.05
2016-05-31T02:47:53.495Z,1016.08
2016-05-31T02:48:53.466Z,1016.06
2016-05-31T02:49:53.454Z,1016.09
2016-05-31T02:50:53.441Z,1016.04
2016-05-31T02:51:53.429Z,1016.01
2016-05-31T02:52:53.415Z,1016.02
2016-05-31T02:53:53.387Z,1016.02
2016-05-31T02:54:53.373Z,1015.99
2016-05-31T02:55:53.360Z,1015.97
2016-05-31T02:56:53.332Z,1016.01
2016-05-31T02:57:53.320Z,1016
2016-05-31T02:58:53.306Z,1016.04
2016-05-31T02:59:53.278Z,1016.02
2016-05-31T03:00:53.264Z,1016.02
2016-05-31T03:01:53.252Z,1016.06
2016-05-31T03:02:53.223Z,1016.01
2016-05-31T03:03:53.211Z,1016.04
2016-05-31T03:04:53.197Z,1016.04
2016-05-31T03:05:53.184Z,1016.08
2016-05-31T03:06:53.172Z,1016.07
2016-05-31T03:07:53.533Z,1016.08
2016-05-31T03:08:53.131Z,1016.01
2016-05-31T03:09:53.102Z,1016.06
2016-05-31T03:10:53.089Z,1016.04
2016-05-31T03:11:53.075Z,1016.05
2016-05-31T03:12:53.046Z,1016.04
2016-05-31T03:13:53.034Z,1016.03
2016-05-31T03:14:53.021Z,1016.04
2016-05-31T03:15:53.008Z,1016.02
2016-05-31T03:16:52.980Z,1015.99
2016-05-31T03:17:52.966Z,1016.01
2016-05-31T03:18:52.954Z,1016
2016-05-31T03:19:52.925Z,1015.98
2016-05-31T03:20:52.927Z,1016.09
2016-05-31T03:21:52.899Z,1016
2016-05-31T03:22:52.887Z,1016.04
2016-05-31T03:23:52.874Z,1016.05
2016-05-31T03:24:52.860Z,1016
2016-05-31T03:25:52.832Z,1016
2016-05-31T03:26:52.819Z,1016.02
2016-05-31T03:27:52.806Z,1015.95
2016-05-31T03:28:52.792Z,1016
2016-05-31T03:29:52.765Z,1015.93
2016-05-31T03:30:52.751Z,1015.92
2016-05-31T03:31:52.723Z,1015.92
2016-05-31T03:32:52.710Z,1015.9
2016-05-31T03:33:52.697Z,1015.94
2016-05-31T03:34:52.669Z,1015.97
2016-05-31T03:35:52.656Z,1015.95
2016-05-31T03:36:52.643Z,1015.93
2016-05-31T03:37:52.614Z,1015.95
2016-05-31T03:38:52.601Z,1015.9
2016-05-31T03:39:52.589Z,1015.89
2016-05-31T03:40:52.575Z,1015.92
2016-05-31T03:41:52.547Z,1015.87
2016-05-31T03:42:52.533Z,1015.89
2016-05-31T03:43:52.521Z,1015.84
2016-05-31T03:44:52.492Z,1015.84
2016-05-31T03:45:52.479Z,1015.79
2016-05-31T03:46:52.467Z,1015.82
2016-05-31T03:47:52.454Z,1015.79
2016-05-31T03:48:52.440Z,1015.8
2016-05-31T03:49:52.413Z,1015.81
2016-05-31T03:50:52.399Z,1015.84
2016-05-31T03:51:52.385Z,1015.84
2016-05-31T03:52:52.374Z,1015.87
2016-05-31T03:53:52.345Z,1015.9
2016-05-31T03:54:52.332Z,1015.87
2016-05-31T03:55:52.304Z,1015.84
2016-05-31T03:56:52.306Z,1015.88
2016-05-31T03:57:52.277Z,1015.92
2016-05-31T03:58:52.265Z,1015.9
2016-05-31T03:59:52.236Z,1015.92
2016-05-31T04:00:52.223Z,1015.93
2016-05-31T04:01:52.209Z,1015.94
2016-05-31T04:02:52.182Z,1015.95
2016-05-31T04:03:52.168Z,1015.95
2016-05-31T04:04:52.155Z,1015.9
2016-05-31T04:05:52.143Z,1015.91
2016-05-31T04:06:52.114Z,1015.88
2016-05-31T04:07:52.100Z,1015.91
2016-05-31T04:08:52.088Z,1015.9
2016-05-31T04:09:52.076Z,1015.92
2016-05-31T04:10:52.047Z,1015.89
2016-05-31T04:11:52.033Z,1015.9
2016-05-31T04:12:52.022Z,1015.84
2016-05-31T04:13:52.008Z,1015.87
2016-05-31T04:14:51.979Z,1015.86
2016-05-31T04:15:51.966Z,1015.82
2016-05-31T04:16:51.953Z,1015.83
2016-05-31T04:17:51.925Z,1015.82
2016-05-31T04:18:51.912Z,1015.81
2016-05-31T04:19:51.899Z,1015.8
2016-05-31T04:20:51.886Z,1015.79
2016-05-31T04:21:51.857Z,1015.76
2016-05-31T04:22:51.844Z,1015.8
2016-05-31T04:23:51.832Z,1015.86
2016-05-31T04:24:51.804Z,1015.84
2016-05-31T04:25:51.790Z,1015.82
2016-05-31T04:26:51.777Z,1015.88
2016-05-31T04:27:51.749Z,1015.81
2016-05-31T04:28:51.735Z,1015.84
2016-05-31T04:29:51.722Z,1015.82
2016-05-31T04:30:51.709Z,1015.82
2016-05-31T04:31:51.682Z,1015.81
2016-05-31T04:32:51.668Z,1015.82
2016-05-31T04:33:51.655Z,1015.78
2016-05-31T04:34:51.643Z,1015.8
2016-05-31T04:35:51.614Z,1015.79
2016-05-31T04:36:51.600Z,1015.8
2016-05-31T04:37:51.589Z,1015.84
2016-05-31T04:38:51.559Z,1015.79
2016-05-31T04:39:51.547Z,1015.86
2016-05-31T04:40:51.517Z,1015.78
2016-05-31T04:41:51.506Z,1015.84
2016-05-31T04:42:51.492Z,1015.83
2016-05-31T04:43:51.479Z,1015.84
2016-05-31T04:44:51.450Z,1015.91
2016-05-31T04:45:51.453Z,1015.9
2016-05-31T04:46:51.425Z,1015.87
2016-05-31T04:47:51.411Z,1015.93
2016-05-31T04:48:51.383Z,1015.87
2016-05-31T04:49:51.371Z,1015.87
2016-05-31T04:50:51.357Z,1015.85
2016-05-31T04:51:51.344Z,1015.78
2016-05-31T04:52:51.316Z,1015.76
2016-05-31T04:53:51.303Z,1015.81
2016-05-31T04:54:51.290Z,1015.8
2016-05-31T04:55:51.277Z,1015.82
2016-05-31T04:56:51.248Z,1015.87
2016-05-31T04:57:51.235Z,1015.88
2016-05-31T04:58:51.207Z,1015.85
2016-05-31T04:59:51.193Z,1015.82
2016-05-31T05:00:51.182Z,1015.9
2016-05-31T05:01:51.168Z,1015.86
2016-05-31T05:02:51.155Z,1015.92
2016-05-31T05:03:51.127Z,1015.89
2016-05-31T05:04:51.114Z,1015.89
2016-05-31T05:05:51.085Z,1015.88
2016-05-31T05:06:51.072Z,1015.88
2016-05-31T05:07:51.060Z,1015.91
2016-05-31T05:08:51.031Z,1015.9
2016-05-31T05:09:51.017Z,1015.95
2016-05-31T05:10:51.020Z,1015.92
2016-05-31T05:11:50.991Z,1015.86
2016-05-31T05:12:50.979Z,1015.93
2016-05-31T05:13:50.950Z,1015.97
2016-05-31T05:14:50.938Z,1016.01
2016-05-31T05:15:50.909Z,1015.93
2016-05-31T05:16:50.896Z,1015.98
2016-05-31T05:17:50.883Z,1015.99
2016-05-31T05:18:50.869Z,1016.03
2016-05-31T05:19:50.842Z,1016
2016-05-31T05:20:50.829Z,1015.96
2016-05-31T05:21:50.816Z,1016.02
2016-05-31T05:22:51.474Z,1016.05
2016-05-31T05:23:50.790Z,1016.07
2016-05-31T05:24:50.761Z,1016.08
2016-05-31T05:25:50.748Z,1016.08
2016-05-31T05:26:50.720Z,1016.08
2016-05-31T05:27:50.707Z,1016.07
2016-05-31T05:28:50.694Z,1016.09
2016-05-31T05:29:50.665Z,1016.09
2016-05-31T05:30:50.652Z,1016.08
2016-05-31T05:31:50.640Z,1016.09
2016-05-31T05:32:50.611Z,1016.09
2016-05-31T05:33:50.614Z,1016.09
2016-05-31T05:34:50.585Z,1016.1
2016-05-31T05:35:50.573Z,1016.03
2016-05-31T05:36:50.543Z,1016.06
2016-05-31T05:37:50.531Z,1016.05
2016-05-31T05:38:50.517Z,1015.98
2016-05-31T05:39:50.489Z,1015.98
2016-05-31T05:40:50.476Z,1015.99
2016-05-31T05:41:50.463Z,1015.99
2016-05-31T05:42:50.451Z,1016.03
2016-05-31T05:43:50.437Z,1016.04
2016-05-31T05:44:50.409Z,1016.07
2016-05-31T05:45:50.396Z,1016.06
2016-05-31T05:46:50.383Z,1016.02
2016-05-31T05:47:50.370Z,1016
2016-05-31T05:48:50.341Z,1016.05
2016-05-31T05:49:50.328Z,1016.02
2016-05-31T05:50:50.315Z,1016.04
2016-05-31T05:51:50.288Z,1016.06
2016-05-31T05:52:50.274Z,1016.05
2016-05-31T05:53:50.260Z,1016.08
2016-05-31T05:54:50.233Z,1016.04
2016-05-31T05:55:50.219Z,1016.09
2016-05-31T05:56:50.207Z,1016.08
2016-05-31T05:57:50.187Z,1016.09
2016-05-31T05:58:50.201Z,1016.06
2016-05-31T05:59:50.214Z,1016.01
2016-05-31T06:00:50.212Z,1016.09
2016-05-31T06:01:50.225Z,1016.09
2016-05-31T06:02:50.234Z,1016.09
2016-05-31T06:03:50.230Z,1016.09
2016-05-31T06:04:50.211Z,1016.09
2016-05-31T06:05:50.208Z,1016.1
2016-05-31T06:06:50.220Z,1016.13
2016-05-31T06:07:50.512Z,1016.17
2016-05-31T06:08:50.174Z,1016.16
2016-05-31T06:09:50.165Z,1016.21
2016-05-31T06:10:50.156Z,1016.2
2016-05-31T06:11:50.146Z,1016.27
2016-05-31T06:12:50.120Z,1016.2
2016-05-31T06:13:50.107Z,1016.21
2016-05-31T06:14:50.096Z,1016.2
2016-05-31T06:15:50.069Z,1016.17
2016-05-31T06:16:50.057Z,1016.19
2016-05-31T06:17:50.045Z,1016.26
2016-05-31T06:18:50.017Z,1016.26
2016-05-31T06:19:50.004Z,1016.2
2016-05-31T06:20:49.991Z,1016.15
2016-05-31T06:21:49.963Z,1016.17
2016-05-31T06:22:49.967Z,1016.23
2016-05-31T06:23:49.938Z,1016.21
2016-05-31T06:24:49.924Z,1016.19
2016-05-31T06:25:49.897Z,1016.21
2016-05-31T06:26:49.883Z,1016.18
2016-05-31T06:27:49.871Z,1016.23
2016-05-31T06:28:49.857Z,1016.22
2016-05-31T06:29:49.829Z,1016.21
2016-05-31T06:30:49.816Z,1016.21
2016-05-31T06:31:49.803Z,1016.24
2016-05-31T06:32:49.790Z,1016.28
2016-05-31T06:33:49.761Z,1016.26
2016-05-31T06:34:49.749Z,1016.24
2016-05-31T06:35:49.736Z,1016.25
2016-05-31T06:36:49.723Z,1016.26
2016-05-31T06:37:49.694Z,1016.25
2016-05-31T06:38:49.682Z,1016.26
2016-05-31T06:39:49.653Z,1016.28
2016-05-31T06:40:49.639Z,1016.3
2016-05-31T06:41:49.627Z,1016.3
2016-05-31T06:42:49.598Z,1016.32
2016-05-31T06:43:49.601Z,1016.32
2016-05-31T06:44:49.572Z,1016.37
2016-05-31T06:45:49.559Z,1016.43
2016-05-31T06:46:49.546Z,1016.46
2016-05-31T06:47:49.519Z,1016.44
2016-05-31T06:48:49.505Z,1016.47
2016-05-31T06:49:49.492Z,1016.47
2016-05-31T06:50:49.464Z,1016.45
2016-05-31T06:51:49.450Z,1016.49
2016-05-31T06:52:49.953Z,1016.44
2016-05-31T06:53:49.987Z,1016.43
2016-05-31T06:54:49.396Z,1016.45
2016-05-31T06:55:49.383Z,1016.45
2016-05-31T06:56:49.371Z,1016.44
2016-05-31T06:57:49.341Z,1016.49
2016-05-31T06:58:49.344Z,1016.43
2016-05-31T06:59:49.316Z,1016.53
2016-05-31T07:00:49.304Z,1016.53
2016-05-31T07:01:49.274Z,1016.54
2016-05-31T07:02:49.262Z,1016.57
2016-05-31T07:03:49.248Z,1016.53
2016-05-31T07:04:49.235Z,1016.53
2016-05-31T07:05:49.207Z,1016.54
2016-05-31T07:06:49.194Z,1016.48
2016-05-31T07:07:49.884Z,1016.56
2016-05-31T07:08:49.168Z,1016.53
2016-05-31T07:09:49.140Z,1016.48
2016-05-31T07:10:49.126Z,1016.46
2016-05-31T07:11:49.114Z,1016.49
2016-05-31T07:12:49.100Z,1016.47
2016-05-31T07:13:49.089Z,1016.5
2016-05-31T07:14:49.059Z,1016.48
2016-05-31T07:15:49.047Z,1016.43
2016-05-31T07:16:49.033Z,1016.45
2016-05-31T07:17:49.020Z,1016.48
2016-05-31T07:18:48.991Z,1016.5
2016-05-31T07:19:48.980Z,1016.48
2016-05-31T07:20:48.966Z,1016.44
2016-05-31T07:21:48.938Z,1016.43
2016-05-31T07:22:48.924Z,1016.41
2016-05-31T07:23:49.100Z,1016.46
2016-05-31T07:24:48.899Z,1016.45
2016-05-31T07:25:48.870Z,1016.51
2016-05-31T07:26:48.857Z,1016.49
2016-05-31T07:27:48.829Z,1016.5
2016-05-31T07:28:48.816Z,1016.51
2016-05-31T07:29:48.818Z,1016.53
2016-05-31T07:30:48.790Z,1016.53
2016-05-31T07:31:48.777Z,1016.52
2016-05-31T07:32:48.749Z,1016.53
2016-05-31T07:33:48.735Z,1016.61
2016-05-31T07:34:48.723Z,1016.54
2016-05-31T07:35:48.709Z,1016.58
2016-05-31T07:36:48.696Z,1016.57
2016-05-31T07:37:48.996Z,1016.53
2016-05-31T07:38:48.656Z,1016.48
2016-05-31T07:39:48.642Z,1016.47
2016-05-31T07:40:48.614Z,1016.49
2016-05-31T07:41:48.601Z,1016.53
2016-05-31T07:42:48.587Z,1016.48
2016-05-31T07:43:48.575Z,1016.49
2016-05-31T07:44:48.561Z,1016.51
2016-05-31T07:45:48.534Z,1016.52
2016-05-31T07:46:48.521Z,1016.58
2016-05-31T07:47:48.508Z,1016.54
2016-05-31T07:48:48.494Z,1016.53
2016-05-31T07:49:48.466Z,1016.52
2016-05-31T07:50:48.453Z,1016.54
2016-05-31T07:51:48.441Z,1016.6
2016-05-31T07:52:48.411Z,1016.6
2016-05-31T07:53:48.821Z,1016.59
2016-05-31T07:54:48.385Z,1016.63
2016-05-31T07:55:48.373Z,1016.61
2016-05-31T07:56:48.344Z,1016.64
2016-05-31T07:57:48.332Z,1016.68
2016-05-31T07:58:48.318Z,1016.71
2016-05-31T07:59:48.305Z,1016.71
2016-05-31T08:00:48.277Z,1016.7
2016-05-31T08:01:48.264Z,1016.76
2016-05-31T08:02:48.251Z,1016.76
2016-05-31T08:03:48.222Z,1016.74
2016-05-31T08:04:48.210Z,1016.75
2016-05-31T08:05:48.213Z,1016.73
2016-05-31T08:06:48.184Z,1016.73
2016-05-31T08:07:48.186Z,1016.69
2016-05-31T08:08:48.189Z,1016.74
2016-05-31T08:09:48.128Z,1016.71
2016-05-31T08:10:48.117Z,1016.72
2016-05-31T08:11:48.104Z,1016.71
2016-05-31T08:12:48.075Z,1016.7
2016-05-31T08:13:48.077Z,1016.7
2016-05-31T08:14:48.049Z,1016.75
2016-05-31T08:15:48.036Z,1016.77
2016-05-31T08:16:48.023Z,1016.75
2016-05-31T08:17:48.010Z,1016.78
2016-05-31T08:18:47.981Z,1016.72
2016-05-31T08:19:47.968Z,1016.69
2016-05-31T08:20:47.955Z,1016.74
2016-05-31T08:21:47.942Z,1016.75
2016-05-31T08:22:48.461Z,1016.76
2016-05-31T08:23:47.916Z,1016.75
2016-05-31T08:24:47.888Z,1016.71
2016-05-31T08:25:47.875Z,1016.73
2016-05-31T08:26:47.847Z,1016.73
2016-05-31T08:27:47.833Z,1016.79
2016-05-31T08:28:47.821Z,1016.8
2016-05-31T08:29:47.807Z,1016.76
2016-05-31T08:30:47.796Z,1016.82
2016-05-31T08:31:47.782Z,1016.81
2016-05-31T08:32:47.754Z,1016.79
2016-05-31T08:33:47.740Z,1016.74
2016-05-31T08:34:47.727Z,1016.81
2016-05-31T08:35:47.715Z,1016.81
2016-05-31T08:36:47.686Z,1016.75
2016-05-31T08:37:47.674Z,1016.75
2016-05-31T08:38:47.660Z,1016.74
2016-05-31T08:39:47.648Z,1016.7
2016-05-31T08:40:47.634Z,1016.76
2016-05-31T08:41:47.621Z,1016.73
2016-05-31T08:42:47.593Z,1016.74
2016-05-31T08:43:47.580Z,1016.75
2016-05-31T08:44:47.567Z,1016.81
2016-05-31T08:45:47.554Z,1016.82
2016-05-31T08:46:47.541Z,1016.77
2016-05-31T08:47:47.512Z,1016.81
2016-05-31T08:48:47.500Z,1016.79
2016-05-31T08:49:47.487Z,1016.73
2016-05-31T08:50:47.458Z,1016.79
2016-05-31T08:51:47.445Z,1016.79
2016-05-31T08:52:47.619Z,1016.75
2016-05-31T08:53:47.419Z,1016.79
2016-05-31T08:54:47.406Z,1016.79
2016-05-31T08:55:47.378Z,1016.77
2016-05-31T08:56:47.380Z,1016.79
2016-05-31T08:57:47.352Z,1016.72
2016-05-31T08:58:47.339Z,1016.74
2016-05-31T08:59:47.326Z,1016.72
2016-05-31T09:00:47.297Z,1016.74
2016-05-31T09:01:47.285Z,1016.78
2016-05-31T09:02:47.271Z,1016.79
2016-05-31T09:03:47.259Z,1016.75
2016-05-31T09:04:47.246Z,1016.75
2016-05-31T09:05:47.232Z,1016.71
2016-05-31T09:06:47.204Z,1016.71
2016-05-31T09:07:47.191Z,1016.69
2016-05-31T09:08:47.179Z,1016.63
2016-05-31T09:09:47.165Z,1016.68
2016-05-31T09:10:47.153Z,1016.64
2016-05-31T09:12:47.111Z,1016.64
2016-05-31T09:13:47.098Z,1016.59
2016-05-31T09:14:47.085Z,1016.62
2016-05-31T09:15:47.072Z,1016.56
2016-05-31T09:16:47.059Z,1016.56
2016-05-31T09:17:47.046Z,1016.59
2016-05-31T09:18:47.034Z,1016.6
2016-05-31T09:19:47.005Z,1016.54
2016-05-31T09:20:46.992Z,1016.58
2016-05-31T09:21:46.978Z,1016.59
2016-05-31T09:22:47.139Z,1016.6
2016-05-31T09:23:46.952Z,1016.62
2016-05-31T09:24:47.081Z,1016.59
2016-05-31T09:25:46.911Z,1016.63
2016-05-31T09:26:46.899Z,1016.61
2016-05-31T09:27:46.885Z,1016.59
2016-05-31T09:28:46.873Z,1016.61
2016-05-31T09:29:46.860Z,1016.68
2016-05-31T09:30:46.847Z,1016.68
2016-05-31T09:31:46.818Z,1016.71
2016-05-31T09:32:46.806Z,1016.7
2016-05-31T09:33:46.792Z,1016.7
2016-05-31T09:34:46.843Z,1016.72
2016-05-31T09:35:46.798Z,1016.69
2016-05-31T09:36:46.753Z,1016.69
2016-05-31T09:37:46.757Z,1016.65
2016-05-31T09:38:46.713Z,1016.68
2016-05-31T09:39:46.699Z,1016.67
2016-05-31T09:40:46.687Z,1016.65
2016-05-31T09:41:46.673Z,1016.64
2016-05-31T09:42:46.645Z,1016.64
2016-05-31T09:43:46.647Z,1016.69
2016-05-31T09:44:46.634Z,1016.63
2016-05-31T09:45:46.606Z,1016.68
2016-05-31T09:46:46.593Z,1016.62
2016-05-31T09:47:46.580Z,1016.65
2016-05-31T09:48:46.583Z,1016.65
2016-05-31T09:49:46.554Z,1016.66
2016-05-31T09:50:46.542Z,1016.61
2016-05-31T09:51:46.528Z,1016.66
2016-05-31T09:52:46.516Z,1016.64
2016-05-31T09:53:46.486Z,1016.64
2016-05-31T09:54:46.474Z,1016.64
2016-05-31T09:55:46.461Z,1016.6
2016-05-31T09:56:46.448Z,1016.6
2016-05-31T09:57:46.435Z,1016.59
2016-05-31T09:58:46.422Z,1016.57
2016-05-31T09:59:46.409Z,1016.59
2016-05-31T10:00:46.381Z,1016.58
2016-05-31T10:01:46.368Z,1016.62
2016-05-31T10:02:46.402Z,1016.64
2016-05-31T10:03:46.357Z,1016.67
2016-05-31T10:04:46.344Z,1016.64
2016-05-31T10:05:46.362Z,1016.6
2016-05-31T10:06:46.304Z,1016.62
2016-05-31T10:07:46.290Z,1016.63
2016-05-31T10:08:46.277Z,1016.64
2016-05-31T10:09:46.264Z,1016.62
2016-05-31T10:10:46.236Z,1016.61
2016-05-31T10:11:46.223Z,1016.61
2016-05-31T10:12:46.226Z,1016.61
2016-05-31T10:13:46.197Z,1016.63
2016-05-31T10:14:46.231Z,1016.65
2016-05-31T10:15:46.170Z,1016.67
2016-05-31T10:16:46.159Z,1016.68
2016-05-31T10:17:46.145Z,1016.69
2016-05-31T10:18:46.132Z,1016.65
2016-05-31T10:19:46.119Z,1016.62
2016-05-31T10:20:46.107Z,1016.64
2016-05-31T10:21:46.094Z,1016.63
2016-05-31T10:22:46.080Z,1016.67
2016-05-31T10:23:46.131Z,1016.61
2016-05-31T10:24:46.039Z,1016.64
2016-05-31T10:25:46.025Z,1016.63
2016-05-31T10:26:46.013Z,1016.57
2016-05-31T10:27:46.000Z,1016.62
2016-05-31T10:28:45.988Z,1016.69
2016-05-31T10:29:45.974Z,1016.67
2016-05-31T10:30:45.961Z,1016.67
2016-05-31T10:31:45.949Z,1016.65
2016-05-31T10:32:45.935Z,1016.63
2016-05-31T10:33:45.922Z,1016.61
2016-05-31T10:34:45.894Z,1016.65
2016-05-31T10:35:45.881Z,1016.6
2016-05-31T10:36:45.884Z,1016.63
2016-05-31T10:37:45.965Z,1016.6
2016-05-31T10:38:46.249Z,1016.63
2016-05-31T10:39:45.829Z,1016.57
2016-05-31T10:40:45.816Z,1016.58
2016-05-31T10:41:45.804Z,1016.59
2016-05-31T10:42:45.806Z,1016.56
2016-05-31T10:43:45.793Z,1016.56
2016-05-31T10:44:45.765Z,1016.59
2016-05-31T10:45:45.751Z,1016.59
2016-05-31T10:46:45.754Z,1016.56
2016-05-31T10:47:45.726Z,1016.62
2016-05-31T10:48:45.728Z,1016.67
2016-05-31T10:55:35.981Z,1016.61
2016-05-31T10:56:35.969Z,1016.64
2016-05-31T10:57:35.956Z,1016.64
2016-05-31T10:58:35.943Z,1016.62
2016-05-31T10:59:35.930Z,1016.63
2016-05-31T11:00:35.917Z,1016.58
2016-05-31T11:01:35.888Z,1016.6
2016-05-31T11:02:35.907Z,1016.6
2016-05-31T11:03:35.878Z,1016.56
2016-05-31T11:04:35.865Z,1016.57
2016-05-31T11:05:35.852Z,1016.58
2016-05-31T11:06:35.840Z,1016.51
2016-05-31T11:07:35.826Z,1016.52
2016-05-31T11:08:35.814Z,1016.52
2016-05-31T11:09:35.801Z,1016.55
2016-05-31T11:10:35.787Z,1016.53
2016-05-31T11:11:35.774Z,1016.52
2016-05-31T11:12:35.777Z,1016.51
2016-05-31T11:13:35.748Z,1016.49
2016-05-31T11:14:35.752Z,1016.46
2016-05-31T11:15:35.739Z,1016.5
2016-05-31T11:16:35.726Z,1016.46
2016-05-31T11:17:35.698Z,1016.47
2016-05-31T11:18:35.684Z,1016.51
2016-05-31T11:19:35.671Z,1016.45
2016-05-31T11:20:35.673Z,1016.42
2016-05-31T11:21:35.661Z,1016.46
2016-05-31T11:22:35.648Z,1016.44
2016-05-31T11:23:35.636Z,1016.42
2016-05-31T11:24:35.622Z,1016.44
2016-05-31T11:25:35.875Z,1016.56
2016-05-31T11:26:35.769Z,1016.67
2016-05-31T11:27:35.583Z,1016.75
2016-05-31T11:28:35.570Z,1016.75
2016-05-31T11:29:35.573Z,1016.76
2016-05-31T11:30:35.560Z,1016.65
2016-05-31T11:31:35.547Z,1016.65
2016-05-31T11:32:35.534Z,1016.63
2016-05-31T11:33:35.538Z,1016.64
2016-05-31T11:34:35.540Z,1016.66
2016-05-31T11:35:35.527Z,1016.58
2016-05-31T11:36:35.513Z,1016.5
2016-05-31T11:37:35.516Z,1016.43
2016-05-31T11:38:35.503Z,1016.49
2016-05-31T11:39:35.506Z,1016.43
2016-05-31T11:40:35.494Z,1016.43
2016-05-31T11:41:35.496Z,1016.47
2016-05-31T11:42:35.498Z,1016.48
2016-05-31T11:43:35.486Z,1016.42
2016-05-31T11:44:35.488Z,1016.42
2016-05-31T11:45:35.476Z,1016.45
2016-05-31T11:46:35.479Z,1016.43
2016-05-31T11:47:35.481Z,1016.39
2016-05-31T11:48:35.483Z,1016.36
2016-05-31T11:49:35.486Z,1016.38
2016-05-31T11:50:35.473Z,1016.43
2016-05-31T11:51:35.476Z,1016.45
2016-05-31T11:52:35.495Z,1016.36
2016-05-31T11:53:35.466Z,1016.34
2016-05-31T11:54:35.469Z,1016.35
2016-05-31T11:55:35.471Z,1016.31
2016-05-31T11:56:35.474Z,1016.33
2016-05-31T11:57:35.477Z,1016.29
2016-05-31T11:58:35.480Z,1016.29
2016-05-31T11:59:35.466Z,1016.29
2016-05-31T12:00:35.485Z,1016.28
2016-05-31T12:01:35.487Z,1016.29
2016-05-31T12:02:35.474Z,1016.26
2016-05-31T12:03:35.478Z,1016.25
2016-05-31T12:04:35.464Z,1016.26
2016-05-31T12:05:35.483Z,1016.25
2016-05-31T12:06:35.485Z,1016.23
2016-05-31T12:07:35.487Z,1016.24
2016-05-31T12:08:35.491Z,1016.18
2016-05-31T12:09:35.478Z,1016.18
2016-05-31T12:10:35.480Z,1016.19
2016-05-31T12:11:35.483Z,1016.25
2016-05-31T12:12:35.485Z,1016.25
2016-05-31T12:13:35.488Z,1016.21
2016-05-31T12:14:35.491Z,1016.26
2016-05-31T12:15:35.493Z,1016.26